sensor_id;sensor_type;location;lat;lon;timestamp;temperature;humidity
5621;DHT22;2832;50.864;12.186;2023-05-07T01:20:11;19.50;99.90
5621;DHT22;2832;50.864;12.186;2023-05-07T01:22:49;19.40;99.90
5621;DHT22;2832;50.864;12.186;2023-05-07T01:25:28;19.40;99.90
5621;DHT22;2832;50.864;12.186;2023-05-07T01:28:22;19.40;99.90
5621;DHT22;2832;50.864;12.186;2023-05-07T01:34:32;19.40;99.90
5621;DHT22;2832;50.864;12.186;2023-05-07T01:37:06;19.40;99.90
5621;DHT22;2832;50.864;12.186;2023-05-07T01:39:43;19.40;99.90
5621;DHT22;2832;50.864;12.186;2023-05-07T01:42:19;19.40;99.90
5621;DHT22;2832;50.864;12.186;2023-05-07T01:44:52;19.40;99.90
5621;DHT22;2832;50.864;12.186;2023-05-07T01:50:53;19.40;99.90
5621;DHT22;2832;50.864;12.186;2023-05-07T01:53:36;19.40;99.90
5621;DHT22;2832;50.864;12.186;2023-05-07T01:56:15;19.30;99.90
5621;DHT22;2832;50.864;12.186;2023-05-07T01:58:49;19.30;99.90
5621;DHT22;2832;50.864;12.186;2023-05-07T02:01:25;19.30;99.90
5621;DHT22;2832;50.864;12.186;2023-05-07T02:04:06;19.30;99.90
5621;DHT22;2832;50.864;12.186;2023-05-07T02:07:02;19.30;99.90
5621;DHT22;2832;50.864;12.186;2023-05-07T02:09:36;19.30;99.90
5621;DHT22;2832;50.864;12.186;2023-05-07T02:12:10;19.30;99.90
5621;DHT22;2832;50.864;12.186;2023-05-07T02:14:57;19.20;99.90
5621;DHT22;2832;50.864;12.186;2023-05-07T02:17:25;19.20;99.90
5621;DHT22;2832;50.864;12.186;2023-05-07T05:20:25;18.40;99.90
5621;DHT22;2832;50.864;12.186;2023-05-07T05:22:55;18.40;99.90
5621;DHT22;2832;50.864;12.186;2023-05-07T05:25:28;18.40;99.90
5621;DHT22;2832;50.864;12.186;2023-05-07T05:27:59;18.40;99.90
5621;DHT22;2832;50.864;12.186;2023-05-07T05:30:29;18.40;99.90
5621;DHT22;2832;50.864;12.186;2023-05-07T05:33:00;18.40;99.90
5621;DHT22;2832;50.864;12.186;2023-05-07T05:35:35;18.50;99.90
5621;DHT22;2832;50.864;12.186;2023-05-07T05:38:06;18.50;99.90
5621;DHT22;2832;50.864;12.186;2023-05-07T05:40:37;18.40;99.90
5621;DHT22;2832;50.864;12.186;2023-05-07T05:43:07;18.40;99.90
5621;DHT22;2832;50.864;12.186;2023-05-07T05:45:41;18.40;99.90
5621;DHT22;2832;50.864;12.186;2023-05-07T05:48:19;18.40;99.90
5621;DHT22;2832;50.864;12.186;2023-05-07T05:50:53;18.40;99.90
5621;DHT22;2832;50.864;12.186;2023-05-07T05:53:28;18.40;99.90
5621;DHT22;2832;50.864;12.186;2023-05-07T05:55:59;18.40;99.90
5621;DHT22;2832;50.864;12.186;2023-05-07T05:58:34;18.40;99.90
5621;DHT22;2832;50.864;12.186;2023-05-07T06:01:04;18.30;99.90
5621;DHT22;2832;50.864;12.186;2023-05-07T06:03:35;18.30;99.90
5621;DHT22;2832;50.864;12.186;2023-05-07T06:06:10;18.30;99.90
5621;DHT22;2832;50.864;12.186;2023-05-07T06:08:44;18.30;99.90
5621;DHT22;2832;50.864;12.186;2023-05-07T06:11:23;18.30;99.90
5621;DHT22;2832;50.864;12.186;2023-05-07T06:13:58;18.30;99.90
5621;DHT22;2832;50.864;12.186;2023-05-07T06:16:29;18.30;99.90
5621;DHT22;2832;50.864;12.186;2023-05-07T06:19:06;18.30;99.90
5621;DHT22;2832;50.864;12.186;2023-05-07T06:21:44;18.40;99.90
5621;DHT22;2832;50.864;12.186;2023-05-07T06:24:13;18.30;99.90
5621;DHT22;2832;50.864;12.186;2023-05-07T06:26:44;18.30;99.90
5621;DHT22;2832;50.864;12.186;2023-05-07T06:29:18;18.30;99.90
5621;DHT22;2832;50.864;12.186;2023-05-07T06:31:55;18.20;99.90
5621;DHT22;2832;50.864;12.186;2023-05-07T06:34:27;18.30;99.90
5621;DHT22;2832;50.864;12.186;2023-05-07T06:37:02;18.20;99.90
5621;DHT22;2832;50.864;12.186;2023-05-07T06:39:38;18.20;99.90
5621;DHT22;2832;50.864;12.186;2023-05-07T06:42:12;18.20;99.90
5621;DHT22;2832;50.864;12.186;2023-05-07T06:44:48;18.10;99.90
5621;DHT22;2832;50.864;12.186;2023-05-07T06:47:22;18.10;99.90
5621;DHT22;2832;50.864;12.186;2023-05-07T06:50:04;18.00;99.90
5621;DHT22;2832;50.864;12.186;2023-05-07T06:52:37;18.00;99.90
5621;DHT22;2832;50.864;12.186;2023-05-07T06:55:18;18.00;99.90
5621;DHT22;2832;50.864;12.186;2023-05-07T06:57:51;18.00;99.90
5621;DHT22;2832;50.864;12.186;2023-05-07T07:04:11;17.90;99.90
5621;DHT22;2832;50.864;12.186;2023-05-07T07:06:52;17.80;99.90
5621;DHT22;2832;50.864;12.186;2023-05-07T07:09:33;17.80;99.90
5621;DHT22;2832;50.864;12.186;2023-05-07T07:12:08;17.80;99.90
5621;DHT22;2832;50.864;12.186;2023-05-07T07:14:38;17.80;99.90
5621;DHT22;2832;50.864;12.186;2023-05-07T07:17:12;17.80;99.90
5621;DHT22;2832;50.864;12.186;2023-05-07T07:19:47;17.80;99.90
5621;DHT22;2832;50.864;12.186;2023-05-07T07:22:22;17.80;99.90
5621;DHT22;2832;50.864;12.186;2023-05-07T07:24:57;17.70;99.90
5621;DHT22;2832;50.864;12.186;2023-05-07T07:27:30;17.80;99.90
5621;DHT22;2832;50.864;12.186;2023-05-07T07:30:06;17.70;99.90
5621;DHT22;2832;50.864;12.186;2023-05-07T07:32:38;17.70;99.90
5621;DHT22;2832;50.864;12.186;2023-05-07T07:35:11;17.70;99.90
5621;DHT22;2832;50.864;12.186;2023-05-07T07:38:10;17.60;99.90
5621;DHT22;2832;50.864;12.186;2023-05-07T07:41:05;17.60;99.90
5621;DHT22;2832;50.864;12.186;2023-05-07T07:47:05;17.50;99.90
5621;DHT22;2832;50.864;12.186;2023-05-07T07:49:42;17.50;99.90
5621;DHT22;2832;50.864;12.186;2023-05-07T07:52:18;17.50;99.90
5621;DHT22;2832;50.864;12.186;2023-05-07T07:54:49;17.40;99.90
5621;DHT22;2832;50.864;12.186;2023-05-07T07:57:32;17.00;99.90
5621;DHT22;2832;50.864;12.186;2023-05-07T08:00:09;17.00;99.90
5621;DHT22;2832;50.864;12.186;2023-05-07T08:02:43;17.10;99.90
5621;DHT22;2832;50.864;12.186;2023-05-07T08:05:39;17.20;99.90
5621;DHT22;2832;50.864;12.186;2023-05-07T08:08:18;17.20;99.90
5621;DHT22;2832;50.864;12.186;2023-05-07T08:10:57;17.20;99.90
5621;DHT22;2832;50.864;12.186;2023-05-07T08:13:37;17.20;99.90
5621;DHT22;2832;50.864;12.186;2023-05-07T08:16:14;17.20;99.90
5621;DHT22;2832;50.864;12.186;2023-05-07T08:18:44;17.20;99.90
5621;DHT22;2832;50.864;12.186;2023-05-07T09:22:14;17.20;99.90
5621;DHT22;2832;50.864;12.186;2023-05-07T09:24:49;16.80;99.90
5621;DHT22;2832;50.864;12.186;2023-05-07T09:27:30;16.60;99.90
5621;DHT22;2832;50.864;12.186;2023-05-07T09:30:10;16.70;99.90
5621;DHT22;2832;50.864;12.186;2023-05-07T09:32:47;16.80;99.90
5621;DHT22;2832;50.864;12.186;2023-05-07T09:35:23;16.60;99.90
5621;DHT22;2832;50.864;12.186;2023-05-07T09:38:08;16.70;99.90
5621;DHT22;2832;50.864;12.186;2023-05-07T09:41:05;16.80;99.90
5621;DHT22;2832;50.864;12.186;2023-05-07T09:43:40;16.80;99.90
5621;DHT22;2832;50.864;12.186;2023-05-07T09:46:16;16.90;99.90
5621;DHT22;2832;50.864;12.186;2023-05-07T09:48:56;16.90;99.90
5621;DHT22;2832;50.864;12.186;2023-05-07T09:51:43;16.90;99.90
5621;DHT22;2832;50.864;12.186;2023-05-07T09:54:25;16.80;99.90
5621;DHT22;2832;50.864;12.186;2023-05-07T09:57:04;16.80;99.90
5621;DHT22;2832;50.864;12.186;2023-05-07T09:59:47;16.80;99.90
5621;DHT22;2832;50.864;12.186;2023-05-07T10:02:31;16.70;99.90
5621;DHT22;2832;50.864;12.186;2023-05-07T10:05:12;16.80;99.90
5621;DHT22;2832;50.864;12.186;2023-05-07T10:07:48;16.80;99.90
5621;DHT22;2832;50.864;12.186;2023-05-07T10:10:39;16.80;99.90
5621;DHT22;2832;50.864;12.186;2023-05-07T10:13:13;16.90;99.90
5621;DHT22;2832;50.864;12.186;2023-05-07T10:15:43;16.80;99.90
5621;DHT22;2832;50.864;12.186;2023-05-07T10:18:17;16.70;99.90
5621;DHT22;2832;50.864;12.186;2023-05-07T10:21:04;16.40;99.90
5621;DHT22;2832;50.864;12.186;2023-05-07T11:26:17;16.40;99.90
5621;DHT22;2832;50.864;12.186;2023-05-07T11:28:58;16.30;99.90
5621;DHT22;2832;50.864;12.186;2023-05-07T11:31:32;16.20;99.90
5621;DHT22;2832;50.864;12.186;2023-05-07T11:34:13;16.30;99.90
5621;DHT22;2832;50.864;12.186;2023-05-07T11:36:52;16.30;99.90
5621;DHT22;2832;50.864;12.186;2023-05-07T11:39:33;16.20;99.90
5621;DHT22;2832;50.864;12.186;2023-05-07T11:42:27;16.10;99.90
5621;DHT22;2832;50.864;12.186;2023-05-07T11:45:02;16.20;99.90
5621;DHT22;2832;50.864;12.186;2023-05-07T11:47:46;16.20;99.90
5621;DHT22;2832;50.864;12.186;2023-05-07T11:50:24;16.20;99.90
5621;DHT22;2832;50.864;12.186;2023-05-07T11:53:01;16.20;99.90
5621;DHT22;2832;50.864;12.186;2023-05-07T11:55:56;16.20;99.90
5621;DHT22;2832;50.864;12.186;2023-05-07T11:58:37;16.50;99.90
5621;DHT22;2832;50.864;12.186;2023-05-07T12:01:19;16.40;99.90
5621;DHT22;2832;50.864;12.186;2023-05-07T12:04:13;16.50;99.90
5621;DHT22;2832;50.864;12.186;2023-05-07T12:06:57;16.40;99.90
5621;DHT22;2832;50.864;12.186;2023-05-07T12:09:39;16.30;99.90
5621;DHT22;2832;50.864;12.186;2023-05-07T12:12:48;16.20;99.90
5621;DHT22;2832;50.864;12.186;2023-05-07T12:15:50;16.30;99.90
5621;DHT22;2832;50.864;12.186;2023-05-07T12:18:44;16.20;99.90
5621;DHT22;2832;50.864;12.186;2023-05-07T19:24:45;17.50;99.90
5621;DHT22;2832;50.864;12.186;2023-05-07T19:27:23;17.50;99.90
5621;DHT22;2832;50.864;12.186;2023-05-07T19:30:01;17.50;99.90
5621;DHT22;2832;50.864;12.186;2023-05-07T19:32:29;17.50;99.90
5621;DHT22;2832;50.864;12.186;2023-05-07T19:35:01;17.50;99.90
5621;DHT22;2832;50.864;12.186;2023-05-07T19:37:33;17.50;99.90
5621;DHT22;2832;50.864;12.186;2023-05-07T19:40:04;17.50;99.90
5621;DHT22;2832;50.864;12.186;2023-05-07T19:42:39;17.50;99.90
5621;DHT22;2832;50.864;12.186;2023-05-07T19:45:29;17.50;99.90
5621;DHT22;2832;50.864;12.186;2023-05-07T19:48:21;17.50;99.90
5621;DHT22;2832;50.864;12.186;2023-05-07T19:50:51;17.50;99.90
5621;DHT22;2832;50.864;12.186;2023-05-07T19:53:30;17.50;99.90
5621;DHT22;2832;50.864;12.186;2023-05-07T19:56:11;17.50;99.90
5621;DHT22;2832;50.864;12.186;2023-05-07T19:58:44;17.60;99.90
5621;DHT22;2832;50.864;12.186;2023-05-07T20:25:56;17.60;99.90
5621;DHT22;2832;50.864;12.186;2023-05-07T20:28:24;17.60;99.90
5621;DHT22;2832;50.864;12.186;2023-05-07T20:30:54;17.60;99.90
5621;DHT22;2832;50.864;12.186;2023-05-07T20:33:21;17.60;99.90
5621;DHT22;2832;50.864;12.186;2023-05-07T20:35:50;17.60;99.90
5621;DHT22;2832;50.864;12.186;2023-05-07T20:38:18;17.60;99.90
5621;DHT22;2832;50.864;12.186;2023-05-07T20:40:46;17.50;99.90
5621;DHT22;2832;50.864;12.186;2023-05-07T20:43:15;17.50;99.90
5621;DHT22;2832;50.864;12.186;2023-05-07T20:45:43;17.50;99.90
5621;DHT22;2832;50.864;12.186;2023-05-07T20:48:12;17.50;99.90
5621;DHT22;2832;50.864;12.186;2023-05-07T20:50:44;17.50;99.90
5621;DHT22;2832;50.864;12.186;2023-05-07T20:53:12;17.50;99.90
5621;DHT22;2832;50.864;12.186;2023-05-07T20:55:40;17.50;99.90
5621;DHT22;2832;50.864;12.186;2023-05-07T20:58:07;17.50;99.90
5621;DHT22;2832;50.864;12.186;2023-05-07T21:00:38;17.50;99.90
5621;DHT22;2832;50.864;12.186;2023-05-07T21:03:06;17.60;99.90
5621;DHT22;2832;50.864;12.186;2023-05-07T21:05:34;17.50;99.90
5621;DHT22;2832;50.864;12.186;2023-05-07T21:08:02;17.50;99.90
5621;DHT22;2832;50.864;12.186;2023-05-07T21:10:33;17.50;99.90
5621;DHT22;2832;50.864;12.186;2023-05-07T21:13:04;17.50;99.90
5621;DHT22;2832;50.864;12.186;2023-05-07T21:15:34;17.50;99.90
5621;DHT22;2832;50.864;12.186;2023-05-07T21:18:09;17.50;99.90
5621;DHT22;2832;50.864;12.186;2023-05-07T21:20:39;17.50;99.90
5621;DHT22;2832;50.864;12.186;2023-05-07T21:23:11;17.50;99.90
5621;DHT22;2832;50.864;12.186;2023-05-07T22:27:35;17.30;99.90
5621;DHT22;2832;50.864;12.186;2023-05-07T22:30:04;17.30;99.90
5621;DHT22;2832;50.864;12.186;2023-05-07T22:32:32;17.30;99.90
5621;DHT22;2832;50.864;12.186;2023-05-07T22:35:00;17.30;99.90
5621;DHT22;2832;50.864;12.186;2023-05-07T22:37:29;17.30;99.90
5621;DHT22;2832;50.864;12.186;2023-05-07T22:39:56;17.30;99.90
5621;DHT22;2832;50.864;12.186;2023-05-07T22:42:24;17.30;99.90
5621;DHT22;2832;50.864;12.186;2023-05-07T22:44:54;17.20;99.90
5621;DHT22;2832;50.864;12.186;2023-05-07T22:47:23;17.30;99.90
5621;DHT22;2832;50.864;12.186;2023-05-07T22:49:52;17.20;99.90
5621;DHT22;2832;50.864;12.186;2023-05-07T22:52:20;17.20;99.90
5621;DHT22;2832;50.864;12.186;2023-05-07T22:54:47;17.20;99.90
5621;DHT22;2832;50.864;12.186;2023-05-07T22:57:15;17.20;99.90
5621;DHT22;2832;50.864;12.186;2023-05-07T22:59:43;17.20;99.90
5621;DHT22;2832;50.864;12.186;2023-05-07T23:02:13;17.20;99.90
5621;DHT22;2832;50.864;12.186;2023-05-07T23:04:41;17.20;99.90
5621;DHT22;2832;50.864;12.186;2023-05-07T23:07:10;17.20;99.90
5621;DHT22;2832;50.864;12.186;2023-05-07T23:09:40;17.20;99.90
5621;DHT22;2832;50.864;12.186;2023-05-07T23:12:11;17.20;99.90
5621;DHT22;2832;50.864;12.186;2023-05-07T23:14:39;17.10;99.90
5621;DHT22;2832;50.864;12.186;2023-05-07T23:17:08;17.10;99.90
5621;DHT22;2832;50.864;12.186;2023-05-07T23:19:38;17.10;99.90
5621;DHT22;2832;50.864;12.186;2023-05-07T23:22:07;17.10;99.90
5621;DHT22;2832;50.864;12.186;2023-05-07T23:24:35;17.10;99.90
